Fjordprinsessen — LJVE — position and weather

sailwx.info

Track history (hours):
 
Tides and Currents Weather Stations Pressure Air Temp Water Temp Dewpoint Dewpoint Depression Visibility Wind Speed Wind Dir Waves Ship Positions

Fjordprinsessen

Last reported at 2014-Dec-19 10:28 UTC. Time now 2014-Dec-19 10:49 UTC.
Position N 69°39' E 018°57'.

Length 30 m; draft 2.9 m.

Type: High speed craft. MMSI: 259604000.

Date/timePositionNaut miles runAvg speedWind from/ knotsBaromVisibWave heightAir tempDewpointWater temp
2014-Dec-19 10:28N 69°39' E 018°57'0 0.0
2014-Dec-19 09:31N 69°39' E 018°57'0 0.0
2014-Dec-19 08:31N 69°39' E 018°57'7 3.2
2014-Dec-19 06:26N 69°34' E 018°46'7 7.6
2014-Dec-19 05:34N 69°39' E 018°57'0 0.0
2014-Dec-19 04:33N 69°39' E 018°57'0 0.0
2014-Dec-19 03:33N 69°39' E 018°57'0 0.0
2014-Dec-19 02:33N 69°39' E 018°57'0 0.0
2014-Dec-19 01:33N 69°39' E 018°57'0 0.0
2014-Dec-19 00:34N 69°39' E 018°57'0 0.0
2014-Dec-18 23:34N 69°39' E 018°57'0 0.0
2014-Dec-18 22:34N 69°39' E 018°57'0 0.0
2014-Dec-18 21:33N 69°39' E 018°57'0 0.0
2014-Dec-18 20:33N 69°39' E 018°57'0 0.0
2014-Dec-18 19:34N 69°39' E 018°57'6 1.5
2014-Dec-18 15:16N 69°44' E 019°06'6 9.0
2014-Dec-18 14:34N 69°39' E 018°57'0 0.0
2014-Dec-18 13:30N 69°39' E 018°57'0 0.0
2014-Dec-18 12:33N 69°39' E 018°57'0 0.0
2014-Dec-18 11:30N 69°39' E 018°57'0 0.0
2014-Dec-18 10:33N 69°39' E 018°57'0 0.0
2014-Dec-18 09:33N 69°39' E 018°57'6 0.4
2014-Dec-17 18:33N 69°44' E 019°05'6 5.5
2014-Dec-17 17:32N 69°39' E 018°57'7 3.2
2014-Dec-17 15:18N 69°33' E 018°46'7 8.4
2014-Dec-17 14:26N 69°39' E 018°57'0 0.0
2014-Dec-17 13:32N 69°39' E 018°57'0 0.0
2014-Dec-17 12:29N 69°39' E 018°57'0 0.0
2014-Dec-17 11:26N 69°39' E 018°57'0 0.0
2014-Dec-17 10:32N 69°39' E 018°57'0 0.0
2014-Dec-17 09:29N 69°39' E 018°57'0 0.0
2014-Dec-17 08:26N 69°39' E 018°57'6 3.2
2014-Dec-17 06:25N 69°34' E 018°46'7 7.1
2014-Dec-17 05:30N 69°39' E 018°57'0 0.0
2014-Dec-17 04:33N 69°39' E 018°57'0 0.0
2014-Dec-17 03:33N 69°39' E 018°57'0 0.0
2014-Dec-17 02:33N 69°39' E 018°57'0 0.0
2014-Dec-17 01:33N 69°39' E 018°57'0 0.0
2014-Dec-17 00:33N 69°39' E 018°57'0 0.0
2014-Dec-16 23:33N 69°39' E 018°57'0 0.0
2014-Dec-16 22:33N 69°39' E 018°57'0 0.0
2014-Dec-16 21:33N 69°39' E 018°57'0 0.0
2014-Dec-16 20:33N 69°39' E 018°57'0 0.0
2014-Dec-16 19:33N 69°39' E 018°57'6 1.5
2014-Dec-16 15:17N 69°44' E 019°06'6 7.8
2014-Dec-16 14:28N 69°39' E 018°57'0 0.0
2014-Dec-16 13:31N 69°39' E 018°57'1 1.5
2014-Dec-16 12:33N 69°37' E 018°56'2 1.4
2014-Dec-16 11:28N 69°39' E 018°57'0 0.0
2014-Dec-16 10:28N 69°39' E 018°57'0 0.0
2014-Dec-16 09:28N 69°39' E 018°57'4 0.3
2014-Dec-15 18:33N 69°43' E 019°04'4 4.0
2014-Dec-15 17:26N 69°39' E 018°57'4 1.8
2014-Dec-15 15:12N 69°35' E 018°51'4 5.0
2014-Dec-15 14:23N 69°39' E 018°57'0 0.0
2014-Dec-15 13:32N 69°39' E 018°57'0 0.0
2014-Dec-15 12:32N 69°39' E 018°57'0 0.0
2014-Dec-15 11:23N 69°39' E 018°57'0 0.0
2014-Dec-15 10:29N 69°39' E 018°57'0 0.0
2014-Dec-15 09:29N 69°39' E 018°57'0 0.0
2014-Dec-15 08:23N 69°39' E 018°57'6 3.0
2014-Dec-15 06:25N 69°34' E 018°47'6 6.6
2014-Dec-15 05:31N 69°39' E 018°57'0 0.0
2014-Dec-15 04:31N 69°39' E 018°57'0 0.0
2014-Dec-15 03:28N 69°39' E 018°57'0 0.0
2014-Dec-15 02:31N 69°39' E 018°57'0 0.0
2014-Dec-15 01:28N 69°39' E 018°57'0 0.0
2014-Dec-15 00:31N 69°39' E 018°57'0 0.0
2014-Dec-14 23:19N 69°39' E 018°57'0 0.0
2014-Dec-14 22:31N 69°39' E 018°57'0 0.0
2014-Dec-14 21:31N 69°39' E 018°57'6 2.9
2014-Dec-14 19:33N 69°34' E 018°48'12 2.3
2014-Dec-14 14:07N 69°45' E 019°06'711.0
2014-Dec-14 13:31N 69°39' E 018°57'0 0.0
2014-Dec-14 12:31N 69°39' E 018°57'0 0.0
2014-Dec-14 11:31N 69°39' E 018°57'0 0.0
2014-Dec-14 10:31N 69°39' E 018°57'0 0.0
2014-Dec-14 09:28N 69°39' E 018°57'0 0.0
2014-Dec-14 08:31N 69°39' E 018°57'0 0.0
2014-Dec-14 07:31N 69°39' E 018°57'0 0.0
2014-Dec-14 06:31N 69°39' E 018°57'0 0.0
2014-Dec-14 05:31N 69°39' E 018°57'0 0.0
2014-Dec-14 04:31N 69°39' E 018°57'0 0.0
2014-Dec-14 03:31N 69°39' E 018°57'0 0.0
2014-Dec-14 02:34N 69°39' E 018°57'0 0.0
2014-Dec-14 01:33N 69°39' E 018°57'0 0.0
2014-Dec-14 00:30N 69°39' E 018°57'0 0.0
2014-Dec-13 23:33N 69°39' E 018°57'0 0.0
2014-Dec-13 22:33N 69°39' E 018°57'0 0.0
2014-Dec-13 21:33N 69°39' E 018°57'0 0.0
2014-Dec-13 20:33N 69°39' E 018°57'0 0.0
2014-Dec-13 19:30N 69°39' E 018°57'0 0.0
2014-Dec-13 18:33N 69°39' E 018°57'0 0.0
2014-Dec-13 17:33N 69°39' E 018°57'0 0.0
2014-Dec-13 16:33N 69°39' E 018°57'0 0.0
2014-Dec-13 15:33N 69°39' E 018°57'0 0.0
2014-Dec-13 14:32N 69°39' E 018°57'0 0.0
2014-Dec-13 13:32N 69°39' E 018°57'0 0.0
2014-Dec-13 12:32N 69°39' E 018°57'0 0.0
2014-Dec-13 11:32N 69°39' E 018°57'0 0.0
2014-Dec-13 10:32N 69°39' E 018°57'0 0.0
2014-Dec-13 09:32N 69°39' E 018°57'0 0.0
2014-Dec-13 08:32N 69°39' E 018°57'0 0.0
2014-Dec-13 07:32N 69°39' E 018°57'0 0.0
2014-Dec-13 06:32N 69°39' E 018°57'0 0.0
2014-Dec-13 05:32N 69°39' E 018°57'0 0.0
2014-Dec-13 04:32N 69°39' E 018°57'0 0.0
2014-Dec-13 03:32N 69°39' E 018°57'0 0.0
2014-Dec-13 02:32N 69°39' E 018°57'0 0.0
2014-Dec-13 01:32N 69°39' E 018°57'0 0.0
2014-Dec-13 00:32N 69°39' E 018°57'0 0.0
2014-Dec-12 23:31N 69°39' E 018°57'0 0.0
2014-Dec-12 22:31N 69°39' E 018°57'4 0.8
2014-Dec-12 17:33N 69°42' E 019°04'7 3.1
2014-Dec-12 15:11N 69°36' E 018°53'3 5.1
2014-Dec-12 14:32N 69°39' E 018°57'0 0.0
2014-Dec-12 13:32N 69°39' E 018°57'0 0.0
2014-Dec-12 12:32N 69°39' E 018°57'0 0.0
2014-Dec-12 11:31N 69°39' E 018°57'0 0.0
2014-Dec-12 10:31N 69°39' E 018°57'0 0.0
2014-Dec-12 09:31N 69°39' E 018°57'0 0.0
2014-Dec-12 08:31N 69°39' E 018°57'7 3.3
2014-Dec-12 06:27N 69°33' E 018°45'7 7.1
2014-Dec-12 05:30N 69°39' E 018°57'0 0.0
2014-Dec-12 04:33N 69°39' E 018°57'0 0.0
2014-Dec-12 03:24N 69°39' E 018°57'0 0.0
2014-Dec-12 02:33N 69°39' E 018°57'0 0.0
2014-Dec-12 01:33N 69°39' E 018°57'0 0.0
2014-Dec-12 00:33N 69°39' E 018°57'0 0.0
2014-Dec-11 23:33N 69°39' E 018°57'0 0.0
2014-Dec-11 22:33N 69°39' E 018°57'0 0.0
2014-Dec-11 21:33N 69°39' E 018°57'0 0.0
2014-Dec-11 20:33N 69°39' E 018°57'0 0.0
2014-Dec-11 19:28N 69°39' E 018°57'7 1.6
2014-Dec-11 15:19N 69°45' E 019°06'7 8.7
2014-Dec-11 14:33N 69°39' E 018°57'0 0.0
2014-Dec-11 13:33N 69°39' E 018°57'0 0.0
2014-Dec-11 12:33N 69°39' E 018°57'0 0.0
2014-Dec-11 11:33N 69°39' E 018°57'0 0.0
2014-Dec-11 10:33N 69°39' E 018°57'0 0.0
2014-Dec-11 09:33N 69°39' E 018°57'5 0.3
2014-Dec-10 18:33N 69°43' E 019°04'5 4.8
2014-Dec-10 17:31N 69°39' E 018°57'4 1.8
2014-Dec-10 15:12N 69°35' E 018°51'4 5.9
2014-Dec-10 14:31N 69°39' E 018°57'0 0.0
2014-Dec-10 13:16N 69°39' E 018°57'0 0.0
2014-Dec-10 12:31N 69°39' E 018°57'0 0.0
2014-Dec-10 11:31N 69°39' E 018°57'0 0.0
2014-Dec-10 10:22N 69°39' E 018°57'0 0.0
2014-Dec-10 09:28N 69°39' E 018°57'0 0.0
2014-Dec-10 08:31N 69°39' E 018°57'7 3.4
2014-Dec-10 06:28N 69°33' E 018°45'7 7.6
2014-Dec-10 05:33N 69°39' E 018°57'0 0.0
2014-Dec-10 04:30N 69°39' E 018°57'0 0.0
2014-Dec-10 03:33N 69°39' E 018°57'0 0.0
2014-Dec-10 02:27N 69°39' E 018°57'0 0.0
2014-Dec-10 01:30N 69°39' E 018°57'0 0.0
2014-Dec-10 00:33N 69°39' E 018°57'0 0.0
2014-Dec-09 23:33N 69°39' E 018°57'0 0.0
2014-Dec-09 22:33N 69°39' E 018°57'0 0.0
2014-Dec-09 21:30N 69°39' E 018°57'0 0.0
2014-Dec-09 20:30N 69°39' E 018°57'0 0.0
2014-Dec-09 19:29N 69°39' E 018°57'7 1.6
2014-Dec-09 15:18N 69°45' E 019°07'7 9.3
2014-Dec-09 14:33N 69°39' E 018°57'0 0.0
2014-Dec-09 13:33N 69°39' E 018°57'0 0.0
2014-Dec-09 12:30N 69°39' E 018°57'0 0.0
2014-Dec-09 11:30N 69°39' E 018°57'  
Track history (hours):
 
Tides and Currents Weather Stations Pressure Air Temp Water Temp Dewpoint Dewpoint Depression Visibility Wind Speed Wind Dir Waves Ship Positions

Fjordprinsessen

Last reported at 2014-Dec-19 10:28 UTC. Time now 2014-Dec-19 10:49 UTC.
Position N 69°39' E 018°57'.

Length 30 m; draft 2.9 m.

Type: High speed craft. MMSI: 259604000.

Date/timePositionNaut miles runAvg speedWind from/ knotsBaromVisibWave heightAir tempDewpointWater temp
2014-Dec-19 10:28N 69°39' E 018°57'0 0.0
2014-Dec-19 09:31N 69°39' E 018°57'0 0.0
2014-Dec-19 08:31N 69°39' E 018°57'7 3.2
2014-Dec-19 06:26N 69°34' E 018°46'7 7.6
2014-Dec-19 05:34N 69°39' E 018°57'0 0.0
2014-Dec-19 04:33N 69°39' E 018°57'0 0.0
2014-Dec-19 03:33N 69°39' E 018°57'0 0.0
2014-Dec-19 02:33N 69°39' E 018°57'0 0.0
2014-Dec-19 01:33N 69°39' E 018°57'0 0.0
2014-Dec-19 00:34N 69°39' E 018°57'0 0.0
2014-Dec-18 23:34N 69°39' E 018°57'0 0.0
2014-Dec-18 22:34N 69°39' E 018°57'0 0.0
2014-Dec-18 21:33N 69°39' E 018°57'0 0.0
2014-Dec-18 20:33N 69°39' E 018°57'0 0.0
2014-Dec-18 19:34N 69°39' E 018°57'6 1.5
2014-Dec-18 15:16N 69°44' E 019°06'6 9.0
2014-Dec-18 14:34N 69°39' E 018°57'0 0.0
2014-Dec-18 13:30N 69°39' E 018°57'0 0.0
2014-Dec-18 12:33N 69°39' E 018°57'0 0.0
2014-Dec-18 11:30N 69°39' E 018°57'0 0.0
2014-Dec-18 10:33N 69°39' E 018°57'0 0.0
2014-Dec-18 09:33N 69°39' E 018°57'6 0.4
2014-Dec-17 18:33N 69°44' E 019°05'6 5.5
2014-Dec-17 17:32N 69°39' E 018°57'7 3.2
2014-Dec-17 15:18N 69°33' E 018°46'7 8.4
2014-Dec-17 14:26N 69°39' E 018°57'0 0.0
2014-Dec-17 13:32N 69°39' E 018°57'0 0.0
2014-Dec-17 12:29N 69°39' E 018°57'0 0.0
2014-Dec-17 11:26N 69°39' E 018°57'0 0.0
2014-Dec-17 10:32N 69°39' E 018°57'0 0.0
2014-Dec-17 09:29N 69°39' E 018°57'0 0.0
2014-Dec-17 08:26N 69°39' E 018°57'6 3.2
2014-Dec-17 06:25N 69°34' E 018°46'7 7.1
2014-Dec-17 05:30N 69°39' E 018°57'0 0.0
2014-Dec-17 04:33N 69°39' E 018°57'0 0.0
2014-Dec-17 03:33N 69°39' E 018°57'0 0.0
2014-Dec-17 02:33N 69°39' E 018°57'0 0.0
2014-Dec-17 01:33N 69°39' E 018°57'0 0.0
2014-Dec-17 00:33N 69°39' E 018°57'0 0.0
2014-Dec-16 23:33N 69°39' E 018°57'0 0.0
2014-Dec-16 22:33N 69°39' E 018°57'0 0.0
2014-Dec-16 21:33N 69°39' E 018°57'0 0.0
2014-Dec-16 20:33N 69°39' E 018°57'0 0.0
2014-Dec-16 19:33N 69°39' E 018°57'6 1.5
2014-Dec-16 15:17N 69°44' E 019°06'6 7.8
2014-Dec-16 14:28N 69°39' E 018°57'0 0.0
2014-Dec-16 13:31N 69°39' E 018°57'1 1.5
2014-Dec-16 12:33N 69°37' E 018°56'2 1.4
2014-Dec-16 11:28N 69°39' E 018°57'0 0.0
2014-Dec-16 10:28N 69°39' E 018°57'0 0.0
2014-Dec-16 09:28N 69°39' E 018°57'4 0.3
2014-Dec-15 18:33N 69°43' E 019°04'4 4.0
2014-Dec-15 17:26N 69°39' E 018°57'4 1.8
2014-Dec-15 15:12N 69°35' E 018°51'4 5.0
2014-Dec-15 14:23N 69°39' E 018°57'0 0.0
2014-Dec-15 13:32N 69°39' E 018°57'0 0.0
2014-Dec-15 12:32N 69°39' E 018°57'0 0.0
2014-Dec-15 11:23N 69°39' E 018°57'0 0.0
2014-Dec-15 10:29N 69°39' E 018°57'0 0.0
2014-Dec-15 09:29N 69°39' E 018°57'0 0.0
2014-Dec-15 08:23N 69°39' E 018°57'6 3.0
2014-Dec-15 06:25N 69°34' E 018°47'6 6.6
2014-Dec-15 05:31N 69°39' E 018°57'0 0.0
2014-Dec-15 04:31N 69°39' E 018°57'0 0.0
2014-Dec-15 03:28N 69°39' E 018°57'0 0.0
2014-Dec-15 02:31N 69°39' E 018°57'0 0.0
2014-Dec-15 01:28N 69°39' E 018°57'0 0.0
2014-Dec-15 00:31N 69°39' E 018°57'0 0.0
2014-Dec-14 23:19N 69°39' E 018°57'0 0.0
2014-Dec-14 22:31N 69°39' E 018°57'0 0.0
2014-Dec-14 21:31N 69°39' E 018°57'6 2.9
2014-Dec-14 19:33N 69°34' E 018°48'12 2.3
2014-Dec-14 14:07N 69°45' E 019°06'711.0
2014-Dec-14 13:31N 69°39' E 018°57'0 0.0
2014-Dec-14 12:31N 69°39' E 018°57'0 0.0
2014-Dec-14 11:31N 69°39' E 018°57'0 0.0
2014-Dec-14 10:31N 69°39' E 018°57'0 0.0
2014-Dec-14 09:28N 69°39' E 018°57'0 0.0
2014-Dec-14 08:31N 69°39' E 018°57'0 0.0
2014-Dec-14 07:31N 69°39' E 018°57'0 0.0
2014-Dec-14 06:31N 69°39' E 018°57'0 0.0
2014-Dec-14 05:31N 69°39' E 018°57'0 0.0
2014-Dec-14 04:31N 69°39' E 018°57'0 0.0
2014-Dec-14 03:31N 69°39' E 018°57'0 0.0
2014-Dec-14 02:34N 69°39' E 018°57'0 0.0
2014-Dec-14 01:33N 69°39' E 018°57'0 0.0
2014-Dec-14 00:30N 69°39' E 018°57'0 0.0
2014-Dec-13 23:33N 69°39' E 018°57'0 0.0
2014-Dec-13 22:33N 69°39' E 018°57'0 0.0
2014-Dec-13 21:33N 69°39' E 018°57'0 0.0
2014-Dec-13 20:33N 69°39' E 018°57'0 0.0
2014-Dec-13 19:30N 69°39' E 018°57'0 0.0
2014-Dec-13 18:33N 69°39' E 018°57'0 0.0
2014-Dec-13 17:33N 69°39' E 018°57'0 0.0
2014-Dec-13 16:33N 69°39' E 018°57'0 0.0
2014-Dec-13 15:33N 69°39' E 018°57'0 0.0
2014-Dec-13 14:32N 69°39' E 018°57'0 0.0
2014-Dec-13 13:32N 69°39' E 018°57'0 0.0
2014-Dec-13 12:32N 69°39' E 018°57'0 0.0
2014-Dec-13 11:32N 69°39' E 018°57'0 0.0
2014-Dec-13 10:32N 69°39' E 018°57'0 0.0
2014-Dec-13 09:32N 69°39' E 018°57'0 0.0
2014-Dec-13 08:32N 69°39' E 018°57'0 0.0
2014-Dec-13 07:32N 69°39' E 018°57'0 0.0
2014-Dec-13 06:32N 69°39' E 018°57'0 0.0
2014-Dec-13 05:32N 69°39' E 018°57'0 0.0
2014-Dec-13 04:32N 69°39' E 018°57'0 0.0
2014-Dec-13 03:32N 69°39' E 018°57'0 0.0
2014-Dec-13 02:32N 69°39' E 018°57'0 0.0
2014-Dec-13 01:32N 69°39' E 018°57'0 0.0
2014-Dec-13 00:32N 69°39' E 018°57'0 0.0
2014-Dec-12 23:31N 69°39' E 018°57'0 0.0
2014-Dec-12 22:31N 69°39' E 018°57'4 0.8
2014-Dec-12 17:33N 69°42' E 019°04'7 3.1
2014-Dec-12 15:11N 69°36' E 018°53'3 5.1
2014-Dec-12 14:32N 69°39' E 018°57'0 0.0
2014-Dec-12 13:32N 69°39' E 018°57'0 0.0
2014-Dec-12 12:32N 69°39' E 018°57'0 0.0
2014-Dec-12 11:31N 69°39' E 018°57'0 0.0
2014-Dec-12 10:31N 69°39' E 018°57'0 0.0
2014-Dec-12 09:31N 69°39' E 018°57'0 0.0
2014-Dec-12 08:31N 69°39' E 018°57'7 3.3
2014-Dec-12 06:27N 69°33' E 018°45'7 7.1
2014-Dec-12 05:30N 69°39' E 018°57'0 0.0
2014-Dec-12 04:33N 69°39' E 018°57'0 0.0
2014-Dec-12 03:24N 69°39' E 018°57'0 0.0
2014-Dec-12 02:33N 69°39' E 018°57'0 0.0
2014-Dec-12 01:33N 69°39' E 018°57'0 0.0
2014-Dec-12 00:33N 69°39' E 018°57'0 0.0
2014-Dec-11 23:33N 69°39' E 018°57'0 0.0
2014-Dec-11 22:33N 69°39' E 018°57'0 0.0
2014-Dec-11 21:33N 69°39' E 018°57'0 0.0
2014-Dec-11 20:33N 69°39' E 018°57'0 0.0
2014-Dec-11 19:28N 69°39' E 018°57'7 1.6
2014-Dec-11 15:19N 69°45' E 019°06'7 8.7
2014-Dec-11 14:33N 69°39' E 018°57'0 0.0
2014-Dec-11 13:33N 69°39' E 018°57'0 0.0
2014-Dec-11 12:33N 69°39' E 018°57'0 0.0
2014-Dec-11 11:33N 69°39' E 018°57'0 0.0
2014-Dec-11 10:33N 69°39' E 018°57'0 0.0
2014-Dec-11 09:33N 69°39' E 018°57'5 0.3
2014-Dec-10 18:33N 69°43' E 019°04'5 4.8
2014-Dec-10 17:31N 69°39' E 018°57'4 1.8
2014-Dec-10 15:12N 69°35' E 018°51'4 5.9
2014-Dec-10 14:31N 69°39' E 018°57'0 0.0
2014-Dec-10 13:16N 69°39' E 018°57'0 0.0
2014-Dec-10 12:31N 69°39' E 018°57'0 0.0
2014-Dec-10 11:31N 69°39' E 018°57'0 0.0
2014-Dec-10 10:22N 69°39' E 018°57'0 0.0
2014-Dec-10 09:28N 69°39' E 018°57'0 0.0
2014-Dec-10 08:31N 69°39' E 018°57'7 3.4
2014-Dec-10 06:28N 69°33' E 018°45'7 7.6
2014-Dec-10 05:33N 69°39' E 018°57'0 0.0
2014-Dec-10 04:30N 69°39' E 018°57'0 0.0
2014-Dec-10 03:33N 69°39' E 018°57'0 0.0
2014-Dec-10 02:27N 69°39' E 018°57'0 0.0
2014-Dec-10 01:30N 69°39' E 018°57'0 0.0
2014-Dec-10 00:33N 69°39' E 018°57'0 0.0
2014-Dec-09 23:33N 69°39' E 018°57'0 0.0
2014-Dec-09 22:33N 69°39' E 018°57'0 0.0
2014-Dec-09 21:30N 69°39' E 018°57'0 0.0
2014-Dec-09 20:30N 69°39' E 018°57'0 0.0
2014-Dec-09 19:29N 69°39' E 018°57'7 1.6
2014-Dec-09 15:18N 69°45' E 019°07'7 9.3
2014-Dec-09 14:33N 69°39' E 018°57'0 0.0
2014-Dec-09 13:33N 69°39' E 018°57'0 0.0
2014-Dec-09 12:30N 69°39' E 018°57'0 0.0
2014-Dec-09 11:30N 69°39' E 018°57'  

Dump ship's entire track history